createdAt,value
2023-05-03T00:02:23.848Z,101962.06
2023-05-03T00:07:15.807Z,101938.25
2023-05-03T00:12:09.108Z,102182.59
2023-05-03T00:17:01.015Z,102182.91
2023-05-03T00:21:53.215Z,101917.47
2023-05-03T00:26:45.131Z,101887.31
2023-05-03T00:31:38.070Z,102174.28
2023-05-03T00:36:31.099Z,102168.97
2023-05-03T00:41:28.980Z,101920.13
2023-05-03T00:46:21.246Z,101908.53
2023-05-03T00:51:15.288Z,101989.59
2023-05-03T00:56:20.194Z,101809.75
2023-05-03T01:01:12.120Z,101864.69
2023-05-03T01:06:43.558Z,102005.81
2023-05-03T01:11:41.945Z,102171.19
2023-05-03T01:16:39.636Z,101861.25
2023-05-03T01:21:34.119Z,102027.97
2023-05-03T01:26:28.845Z,102171.34
2023-05-03T01:31:49.384Z,101726.53
2023-05-03T01:36:44.294Z,101675.69
2023-05-03T01:41:40.722Z,101918.78
2023-05-03T01:46:32.700Z,102164.19
2023-05-03T01:51:25.171Z,101791.41
2023-05-03T01:56:17.020Z,101909.25
2023-05-03T02:01:09.713Z,102186.63
2023-05-03T02:06:01.762Z,102048.03
2023-05-03T02:10:54.550Z,102188.97
2023-05-03T02:15:46.461Z,101778.31
2023-05-03T02:20:39.166Z,101892.25
2023-05-03T02:25:32.158Z,101791.59
2023-05-03T02:30:25.171Z,101875.47
2023-05-03T02:35:17.192Z,102214.53
2023-05-03T02:40:11.427Z,102221.63
2023-05-03T02:45:03.525Z,101817.63
2023-05-03T02:49:56.470Z,102220.47
2023-05-03T02:54:49.783Z,102099.69
2023-05-03T02:59:43.071Z,101875.25
2023-05-03T03:04:35.126Z,102191.94
2023-05-03T03:09:27.067Z,101845.09
2023-05-03T03:14:19.725Z,102047.72
2023-05-03T03:19:13.565Z,101836.66
2023-05-03T03:24:06.920Z,101982.16
2023-05-03T03:28:58.926Z,101929.41
2023-05-03T03:33:51.108Z,102172.97
2023-05-03T03:38:48.386Z,102183.75
2023-05-03T03:43:40.589Z,101918.63
2023-05-03T03:48:38.214Z,101760.53
2023-05-03T03:53:31.239Z,101659.69
2023-05-03T03:58:24.726Z,101888.63
2023-05-03T04:03:17.897Z,101841.00
2023-05-03T04:08:14.357Z,101781.44
2023-05-03T04:13:10.464Z,101672.59
2023-05-03T04:18:05.306Z,102038.34
2023-05-03T04:22:58.830Z,102029.94
2023-05-03T04:27:59.508Z,102154.09
2023-05-03T04:32:54.633Z,102010.47
2023-05-03T04:37:50.103Z,102064.44
2023-05-03T04:42:46.384Z,102068.88
2023-05-03T04:47:39.517Z,102163.78
2023-05-03T04:52:32.037Z,101879.50
2023-05-03T04:57:27.584Z,102055.06
2023-05-03T05:02:20.130Z,101736.06
2023-05-03T05:07:19.388Z,101920.59
2023-05-03T05:12:11.825Z,101879.00
2023-05-03T05:22:52.166Z,102116.03
2023-05-03T05:28:23.560Z,101922.84
2023-05-03T05:33:41.215Z,102199.41
2023-05-03T05:38:33.096Z,102198.09
2023-05-03T05:43:27.157Z,102211.81
2023-05-03T05:48:23.347Z,102218.66
2023-05-03T05:53:16.024Z,101962.31
2023-05-03T05:58:16.493Z,102016.09
2023-05-03T06:03:13.914Z,102149.56
2023-05-03T06:08:08.911Z,101975.19
2023-05-03T06:13:01.729Z,101997.56
2023-05-03T06:23:39.743Z,102147.84
2023-05-03T06:28:33.156Z,102150.91
2023-05-03T06:33:25.668Z,102174.84
2023-05-03T06:38:19.017Z,102141.34
2023-05-03T06:43:10.952Z,102193.50
2023-05-03T06:48:11.911Z,102229.47
2023-05-03T06:53:03.859Z,101989.16
2023-05-03T06:57:55.913Z,102009.94
2023-05-03T07:02:47.896Z,102227.69
2023-05-03T07:07:39.791Z,101995.06
2023-05-03T07:12:32.330Z,101966.31
2023-05-03T07:17:24.952Z,102220.72
2023-05-03T07:22:17.147Z,102219.53
2023-05-03T07:27:11.170Z,101877.34
2023-05-03T07:32:03.734Z,102050.69
2023-05-03T07:37:01.388Z,102007.94
2023-05-03T08:18:00.291Z,102164.16
2023-05-03T08:22:52.759Z,102175.19
2023-05-03T08:27:44.978Z,101935.53
2023-05-03T08:32:37.003Z,102098.66
2023-05-03T08:37:28.992Z,102159.81
2023-05-03T08:42:25.755Z,101985.25
2023-05-03T08:47:18.174Z,101940.59
2023-05-03T08:52:12.389Z,102160.84
2023-05-03T08:57:04.605Z,102078.72
2023-05-03T09:01:56.995Z,102134.72
2023-05-03T09:06:51.833Z,101831.47
2023-05-03T09:11:46.823Z,101967.59
2023-05-03T09:16:42.655Z,101876.00
2023-05-03T09:21:35.688Z,102140.63
2023-05-03T09:26:28.935Z,102029.69
2023-05-03T09:31:20.781Z,102125.59
2023-05-03T09:36:13.876Z,102134.22
2023-05-03T09:41:11.595Z,101946.50
2023-05-03T09:46:13.041Z,102115.41
2023-05-03T09:51:05.739Z,102119.06
2023-05-03T09:55:59.648Z,101905.88
2023-05-03T10:00:52.826Z,101796.19
2023-05-03T10:05:49.699Z,101965.25
2023-05-03T10:10:44.851Z,102110.72
2023-05-03T10:15:39.583Z,101896.63
2023-05-03T10:20:35.894Z,102020.34
2023-05-03T10:25:28.120Z,102081.47
2023-05-03T10:30:41.202Z,102076.63
2023-05-03T10:35:33.281Z,101730.50
2023-05-03T10:40:43.387Z,101675.63
2023-05-03T10:45:36.994Z,102067.13
2023-05-03T10:50:28.996Z,102081.13
2023-05-03T10:55:25.056Z,101759.97
2023-05-03T11:00:31.410Z,101965.84
2023-05-03T11:05:27.272Z,102058.16
2023-05-03T11:10:23.752Z,102051.50
2023-05-03T11:15:16.467Z,101523.97
2023-05-03T11:20:08.908Z,101991.31
2023-05-03T11:25:01.250Z,101746.88
2023-05-03T11:29:59.016Z,101772.78
2023-05-03T11:34:51.546Z,101679.97
2023-05-03T11:39:46.530Z,101714.84
2023-05-03T11:44:39.595Z,101804.78
2023-05-03T11:49:33.050Z,101866.94
2023-05-03T11:54:29.430Z,101906.47
2023-05-03T11:59:38.726Z,102008.88
2023-05-03T12:04:32.213Z,101509.91
2023-05-03T12:09:29.457Z,101826.78
2023-05-03T12:14:22.236Z,101815.88
2023-05-03T12:19:24.966Z,101806.44
2023-05-03T12:24:20.407Z,101953.38
2023-05-03T12:29:13.801Z,101677.91
2023-05-03T12:34:30.920Z,101984.97
2023-05-03T12:39:21.981Z,101964.03
2023-05-03T12:44:16.766Z,101967.06
2023-05-03T12:49:13.090Z,101845.38
2023-05-03T12:54:10.229Z,101949.63
2023-05-03T12:59:31.805Z,101929.03
2023-05-03T13:09:19.359Z,101696.78
2023-05-03T13:14:14.375Z,101512.34
2023-05-03T13:19:11.315Z,101757.47
2023-05-03T13:24:03.564Z,101809.22
2023-05-03T13:28:56.130Z,101851.75
2023-05-03T13:33:54.270Z,101821.56
2023-05-03T13:38:47.689Z,101558.84
2023-05-03T13:43:42.300Z,101493.50
2023-05-03T13:48:34.633Z,101518.50
2023-05-03T13:53:27.434Z,101735.38
2023-05-03T13:58:20.165Z,101582.88
2023-05-03T14:03:12.575Z,101544.94
2023-05-03T14:08:05.316Z,101311.63
2023-05-03T14:12:58.245Z,101626.47
2023-05-03T14:17:58.230Z,101759.09
2023-05-03T14:22:52.152Z,101804.34
2023-05-03T14:27:44.220Z,101729.97
2023-05-03T14:32:36.633Z,101660.09
2023-05-03T14:37:28.530Z,101260.41
2023-05-03T14:42:20.620Z,101511.59
2023-05-03T14:47:12.536Z,101769.34
2023-05-03T14:52:04.807Z,101421.25
2023-05-03T14:57:01.545Z,101692.13
2023-05-03T15:01:56.794Z,101759.75
2023-05-03T15:06:55.116Z,101363.44
2023-05-03T15:11:51.504Z,101754.03
2023-05-03T15:16:45.194Z,101574.50
2023-05-03T15:21:47.271Z,101552.97
2023-05-03T15:26:47.501Z,101675.88
2023-05-03T15:31:39.408Z,101438.69
2023-05-03T15:36:32.540Z,101624.78
2023-05-03T15:41:25.951Z,101737.44
2023-05-03T15:46:17.864Z,101736.19
2023-05-03T15:51:09.805Z,101537.13
2023-05-03T15:56:02.547Z,101502.00
2023-05-03T16:06:12.932Z,101630.31
2023-05-03T16:11:05.000Z,101476.25
2023-05-03T16:15:59.756Z,101452.41
2023-05-03T16:20:52.190Z,101422.16
2023-05-03T16:25:44.130Z,101443.63
2023-05-03T16:30:37.008Z,101612.00
2023-05-03T16:35:29.155Z,101601.78
2023-05-03T16:40:21.396Z,101549.19
2023-05-03T16:45:16.986Z,101575.16
2023-05-03T16:50:10.263Z,101467.78
2023-05-03T16:55:02.364Z,101387.06
2023-05-03T16:59:54.127Z,101655.66
2023-05-03T17:04:46.714Z,101256.06
2023-05-03T17:09:39.728Z,101459.22
2023-05-03T17:14:31.732Z,101687.59
2023-05-03T17:19:24.223Z,101601.25
2023-05-03T17:24:16.160Z,101389.34
2023-05-03T17:29:08.721Z,101671.22
2023-05-03T17:34:00.713Z,101402.84
2023-05-03T17:38:52.529Z,101578.56
2023-05-03T17:43:44.822Z,101652.72
2023-05-03T17:48:39.597Z,101677.88
2023-05-03T17:53:31.768Z,101678.91
2023-05-03T17:58:24.056Z,101503.63
2023-05-03T18:03:17.222Z,101537.19
2023-05-03T18:08:09.682Z,101674.69
2023-05-03T18:13:02.150Z,101573.72
2023-05-03T18:17:55.014Z,101564.84
2023-05-03T18:22:47.866Z,101332.34
2023-05-03T18:27:40.090Z,101369.25
2023-05-03T18:32:32.948Z,101689.13
2023-05-03T18:37:24.972Z,101693.81
2023-05-03T18:42:19.592Z,101413.19
2023-05-03T18:47:13.855Z,101409.63
2023-05-03T18:52:06.432Z,101694.25
2023-05-03T18:57:01.697Z,101613.34
2023-05-03T19:02:20.132Z,101696.66
2023-05-03T19:07:11.959Z,101491.53
2023-05-03T19:12:04.239Z,101465.34
2023-05-03T19:16:56.189Z,101481.84
2023-05-03T19:21:48.124Z,101718.41
2023-05-03T19:26:40.169Z,101457.19
2023-05-03T19:31:33.096Z,101710.19
2023-05-03T19:36:37.521Z,101471.78
2023-05-03T19:41:30.059Z,101486.38
2023-05-03T19:46:22.927Z,101710.72
2023-05-03T19:51:17.001Z,101490.84
2023-05-03T19:56:10.102Z,101371.47
2023-05-03T20:01:05.425Z,101701.03
2023-05-03T20:05:57.867Z,101494.41
2023-05-03T20:10:50.194Z,101423.59
2023-05-03T20:15:42.447Z,101477.50
2023-05-03T20:20:34.582Z,101698.56
2023-05-03T20:25:27.329Z,101647.06
2023-05-03T20:30:19.760Z,101471.28
2023-05-03T20:35:12.410Z,101454.19
2023-05-03T20:40:06.777Z,101367.34
2023-05-03T20:44:59.183Z,101420.81
2023-05-03T20:49:51.149Z,101350.66
2023-05-03T20:54:45.081Z,101540.78
2023-05-03T20:59:37.564Z,101661.03
2023-05-03T21:04:30.257Z,101440.59
2023-05-03T21:09:22.224Z,101509.75
2023-05-03T21:14:14.652Z,101307.41
2023-05-03T21:19:06.656Z,101190.84
2023-05-03T21:23:59.267Z,101400.34
2023-05-03T21:28:51.379Z,101441.50
2023-05-03T21:33:43.559Z,101695.28
2023-05-03T21:38:35.686Z,101417.88
2023-05-03T21:43:27.497Z,101568.09
2023-05-03T21:48:19.404Z,101337.97
2023-05-03T21:53:11.323Z,101300.81
2023-05-03T21:58:03.217Z,101425.13
2023-05-03T22:02:55.198Z,101588.28
2023-05-03T22:07:48.100Z,101308.94
2023-05-03T22:12:40.235Z,101304.44
2023-05-03T22:17:32.492Z,101666.69
2023-05-03T22:22:49.986Z,101550.13
2023-05-03T22:27:42.700Z,101538.78
2023-05-03T22:32:35.103Z,101219.72
2023-05-03T22:37:27.065Z,101489.41
2023-05-03T22:42:19.833Z,101557.88
2023-05-03T22:47:11.866Z,101392.88
2023-05-03T22:52:09.088Z,101392.16
2023-05-03T22:57:01.363Z,101523.66
2023-05-03T23:01:55.190Z,101238.34
2023-05-03T23:06:47.171Z,101632.09
2023-05-03T23:11:39.072Z,101666.16
2023-05-03T23:16:31.065Z,101657.66
2023-05-03T23:21:24.617Z,101599.97
2023-05-03T23:26:16.559Z,101615.59
2023-05-03T23:31:09.023Z,101496.91
2023-05-03T23:36:01.425Z,101298.31
2023-05-03T23:40:54.058Z,101372.28
2023-05-03T23:45:46.199Z,101505.00
2023-05-03T23:50:38.280Z,101345.53
2023-05-03T23:55:30.153Z,101584.34
